Time;durP1;ratioP1;P1;durP2;ratioP2;P2;SDS_P1;SDS_P2;PMS_P1;PMS_P2;Temp;Humidity;BMP_temperature;BMP_pressure;BME280_temperature;BME280_humidity;BME280_pressure;Samples;Min_cycle;Max_cycle;Signal;HPM_P1;HPM_P2
2021/07/08 00:02:05;;;;;;;1.00;0.90;;;21.70;99.90;;;;;;5067110;28;20824;-75
2021/07/08 00:04:33;;;;;;;1.13;1.02;;;21.80;99.90;;;;;;5064309;28;20221;-74
2021/07/08 00:07:00;;;;;;;1.00;1.00;;;21.80;99.90;;;;;;5061582;28;20218;-74
2021/07/08 00:09:28;;;;;;;1.10;1.00;;;21.80;99.90;;;;;;5064478;28;20225;-75
2021/07/08 00:11:55;;;;;;;1.00;1.00;;;21.80;99.90;;;;;;5064946;28;20789;-74
2021/07/08 00:14:22;;;;;;;1.13;1.00;;;21.80;99.90;;;;;;5071968;28;20218;-74
2021/07/08 00:16:49;;;;;;;1.00;1.00;;;21.90;99.90;;;;;;5067167;28;20226;-75
2021/07/08 00:19:16;;;;;;;1.40;0.82;;;22.00;99.90;;;;;;5067597;28;20299;-76
2021/07/08 00:21:43;;;;;;;1.00;0.90;;;22.00;99.90;;;;;;5068386;28;20271;-74
2021/07/08 00:24:10;;;;;;;2.20;1.00;;;22.00;99.90;;;;;;5063249;28;20287;-75
2021/07/08 00:26:39;;;;;;;1.00;0.90;;;22.00;99.90;;;;;;5068019;28;20644;-75
2021/07/08 00:29:06;;;;;;;1.40;1.08;;;21.90;99.90;;;;;;5065312;28;20218;-73
2021/07/08 00:31:33;;;;;;;0.95;0.95;;;21.80;99.90;;;;;;5069879;28;20221;-74
2021/07/08 00:34:01;;;;;;;0.70;0.70;;;21.60;99.90;;;;;;5067227;28;20226;-74
2021/07/08 00:36:28;;;;;;;1.55;1.02;;;21.50;99.90;;;;;;5073690;28;20974;-74
2021/07/08 00:38:55;;;;;;;1.15;0.93;;;21.50;99.90;;;;;;5076424;28;20285;-74
2021/07/08 00:41:23;;;;;;;0.82;0.82;;;21.50;99.90;;;;;;5064549;28;20290;-75
2021/07/08 00:43:52;;;;;;;0.93;0.90;;;21.60;99.90;;;;;;5075554;28;20272;-74
2021/07/08 00:46:19;;;;;;;0.90;0.90;;;21.60;99.90;;;;;;5093134;27;20592;-77
2021/07/08 00:48:47;;;;;;;1.05;0.95;;;21.50;99.90;;;;;;5070192;28;20649;-77
2021/07/08 00:51:15;;;;;;;2.58;1.33;;;21.50;99.90;;;;;;5069787;28;20221;-78
2021/07/08 00:53:42;;;;;;;0.98;0.98;;;21.60;99.90;;;;;;5080047;27;20532;-74
2021/07/08 00:56:10;;;;;;;0.98;0.90;;;21.60;99.90;;;;;;5072578;28;20226;-75
2021/07/08 00:58:37;;;;;;;0.80;0.80;;;21.60;99.90;;;;;;5081774;22;20217;-80
2021/07/08 01:01:05;;;;;;;1.00;0.90;;;21.60;99.90;;;;;;5060844;28;20228;-80
2021/07/08 01:03:34;;;;;;;2.72;1.10;;;21.60;99.90;;;;;;5048713;28;20230;-79
2021/07/08 01:06:01;;;;;;;0.95;0.95;;;21.60;99.90;;;;;;5056716;28;20271;-80
2021/07/08 01:08:29;;;;;;;2.45;0.98;;;21.50;99.90;;;;;;5059595;28;20595;-81
2021/07/08 01:10:56;;;;;;;1.15;0.90;;;21.60;99.90;;;;;;5043043;28;20292;-81
2021/07/08 01:13:23;;;;;;;1.25;1.10;;;21.50;99.90;;;;;;5051155;28;20237;-81
2021/07/08 01:15:51;;;;;;;1.63;1.10;;;21.40;99.90;;;;;;5043850;28;20222;-79
2021/07/08 01:18:20;;;;;;;1.23;1.13;;;21.30;99.90;;;;;;5053980;28;20650;-80
2021/07/08 01:20:47;;;;;;;1.38;1.00;;;21.30;99.90;;;;;;5064228;28;20569;-80
2021/07/08 01:23:16;;;;;;;1.58;1.13;;;21.30;99.90;;;;;;5063431;28;20249;-81
2021/07/08 01:25:43;;;;;;;0.93;0.90;;;21.20;99.90;;;;;;5047284;28;20248;-81
2021/07/08 01:28:11;;;;;;;1.42;0.93;;;21.20;99.90;;;;;;5043067;28;20218;-80
2021/07/08 01:30:39;;;;;;;1.00;1.00;;;21.20;99.90;;;;;;5047709;28;20223;-81
2021/07/08 01:33:08;;;;;;;1.10;1.00;;;21.20;99.90;;;;;;5050105;28;20273;-80
2021/07/08 01:35:35;;;;;;;0.90;0.90;;;21.20;99.90;;;;;;5046640;28;20218;-80
2021/07/08 01:38:02;;;;;;;1.20;1.10;;;21.20;99.90;;;;;;5064574;28;20301;-80
2021/07/08 01:40:30;;;;;;;1.00;1.00;;;21.20;99.90;;;;;;5062094;28;20223;-81
2021/07/08 01:42:58;;;;;;;1.02;1.00;;;21.20;99.90;;;;;;5053510;28;20222;-80
2021/07/08 01:45:25;;;;;;;1.30;1.00;;;21.20;99.90;;;;;;5060283;28;20222;-81
2021/07/08 01:47:52;;;;;;;1.25;1.15;;;21.30;99.90;;;;;;5069267;28;20249;-80
2021/07/08 01:50:20;;;;;;;1.25;0.85;;;21.30;99.90;;;;;;5044622;28;20223;-81
2021/07/08 01:52:48;;;;;;;0.90;0.90;;;21.20;99.90;;;;;;5054284;28;20241;-80
2021/07/08 01:55:15;;;;;;;1.65;0.88;;;21.20;99.90;;;;;;5057403;28;20639;-81
2021/07/08 01:57:51;;;;;;;0.93;0.93;;;21.10;99.90;;;;;;5050918;28;20222;-81
2021/07/08 02:00:19;;;;;;;1.10;1.00;;;21.10;99.90;;;;;;5046623;28;20230;-81
2021/07/08 02:02:46;;;;;;;2.13;1.08;;;21.10;99.90;;;;;;5050769;28;20227;-80
2021/07/08 02:05:13;;;;;;;1.52;1.08;;;21.10;99.90;;;;;;5042439;28;20215;-81
2021/07/08 02:07:40;;;;;;;2.72;1.20;;;21.10;99.90;;;;;;5032240;28;20231;-81
2021/07/08 02:10:09;;;;;;;2.03;0.98;;;21.20;99.90;;;;;;5047602;28;20716;-80
2021/07/08 02:12:36;;;;;;;2.10;1.30;;;21.20;99.90;;;;;;5044522;28;20214;-80
2021/07/08 02:15:07;;;;;;;0.90;0.90;;;21.30;99.90;;;;;;5041601;28;20233;-79
2021/07/08 02:17:34;;;;;;;1.20;1.10;;;21.20;99.90;;;;;;5052879;28;20284;-79
2021/07/08 02:20:02;;;;;;;0.90;0.90;;;21.20;99.90;;;;;;5045591;28;20779;-81
2021/07/08 02:22:29;;;;;;;1.08;1.00;;;21.10;99.90;;;;;;5042064;28;20635;-80
2021/07/08 02:24:56;;;;;;;0.90;0.90;;;21.00;99.90;;;;;;5036142;28;20223;-80
2021/07/08 02:27:23;;;;;;;0.90;0.90;;;20.90;99.90;;;;;;5033626;28;20234;-81
2021/07/08 02:29:50;;;;;;;1.20;1.10;;;20.90;99.90;;;;;;5045482;28;20218;-80
2021/07/08 02:32:18;;;;;;;1.08;1.00;;;20.90;99.90;;;;;;5044458;28;20287;-81
2021/07/08 02:34:48;;;;;;;1.58;1.10;;;20.90;99.90;;;;;;5052019;28;20232;-81
2021/07/08 02:37:16;;;;;;;0.90;0.90;;;20.90;99.90;;;;;;5051017;28;20219;-81
2021/07/08 02:39:43;;;;;;;2.70;1.00;;;20.80;99.90;;;;;;5065801;28;20336;-81
2021/07/08 02:42:10;;;;;;;1.00;1.00;;;20.80;99.90;;;;;;5061073;28;20231;-81
2021/07/08 02:44:37;;;;;;;0.90;0.90;;;20.70;99.90;;;;;;5066988;28;20218;-80
2021/07/08 02:47:05;;;;;;;1.00;0.90;;;20.70;99.90;;;;;;5057774;28;20227;-80
2021/07/08 02:49:33;;;;;;;0.93;0.93;;;20.70;99.90;;;;;;5060788;28;20254;-82
2021/07/08 02:52:00;;;;;;;0.95;0.95;;;20.70;99.90;;;;;;5050181;28;20212;-82
2021/07/08 02:54:27;;;;;;;1.30;0.98;;;20.80;99.90;;;;;;5064518;28;20219;-82
2021/07/08 02:56:54;;;;;;;1.60;0.80;;;20.80;99.90;;;;;;5058229;28;20447;-81
2021/07/08 02:59:21;;;;;;;0.80;0.80;;;20.90;99.90;;;;;;5057587;28;20230;-81
2021/07/08 03:01:48;;;;;;;1.33;0.98;;;21.00;99.90;;;;;;5040358;28;20220;-81
2021/07/08 03:04:15;;;;;;;1.98;1.10;;;20.90;99.90;;;;;;5043607;28;20215;-81
2021/07/08 03:06:43;;;;;;;0.80;0.80;;;20.90;99.90;;;;;;5048148;28;20268;-80
2021/07/08 03:09:10;;;;;;;0.93;0.93;;;20.90;99.90;;;;;;5051189;28;20219;-80
2021/07/08 03:11:37;;;;;;;1.42;0.90;;;20.90;99.90;;;;;;5048377;28;20717;-80
2021/07/08 03:14:04;;;;;;;0.93;0.93;;;20.90;99.90;;;;;;5044813;28;20292;-80
2021/07/08 03:16:32;;;;;;;0.60;0.60;;;20.80;99.90;;;;;;5053208;28;20292;-81
2021/07/08 03:18:58;;;;;;;0.98;0.98;;;20.70;99.90;;;;;;5032504;28;20612;-81
2021/07/08 03:21:25;;;;;;;1.02;1.00;;;20.70;99.90;;;;;;5051591;28;20422;-81
2021/07/08 03:23:54;;;;;;;1.15;1.00;;;20.70;99.90;;;;;;5050544;28;20708;-81
2021/07/08 03:26:21;;;;;;;0.98;0.98;;;20.70;99.90;;;;;;5036959;28;20242;-81
2021/07/08 03:28:48;;;;;;;1.02;0.93;;;20.80;99.90;;;;;;5053766;28;20222;-81
2021/07/08 03:31:18;;;;;;;1.77;1.08;;;20.80;99.90;;;;;;5050450;28;20218;-82
2021/07/08 03:33:45;;;;;;;1.02;0.93;;;20.80;99.90;;;;;;5052259;28;20222;-80
2021/07/08 03:36:12;;;;;;;1.20;1.10;;;20.80;99.90;;;;;;5049511;28;20246;-80
2021/07/08 03:38:39;;;;;;;0.95;0.95;;;20.80;99.90;;;;;;5056020;28;20219;-81
2021/07/08 03:41:08;;;;;;;1.30;1.20;;;20.70;99.90;;;;;;5054348;28;20218;-81
2021/07/08 03:43:34;;;;;;;0.90;0.90;;;20.70;99.90;;;;;;5043600;28;20223;-81
2021/07/08 03:46:02;;;;;;;1.10;1.00;;;20.70;99.90;;;;;;5053557;28;20245;-81
2021/07/08 03:48:29;;;;;;;0.95;0.95;;;20.70;99.90;;;;;;5049191;28;20276;-81
2021/07/08 03:50:56;;;;;;;1.73;1.10;;;20.60;99.90;;;;;;5056790;28;20253;-81
2021/07/08 03:53:23;;;;;;;1.23;1.13;;;20.60;99.90;;;;;;5054805;28;20233;-81
2021/07/08 03:55:50;;;;;;;1.05;0.90;;;20.60;99.90;;;;;;5053343;28;20705;-80
2021/07/08 03:58:18;;;;;;;1.02;1.02;;;20.70;99.90;;;;;;5052581;28;20223;-81
2021/07/08 04:00:45;;;;;;;1.02;1.02;;;20.70;99.90;;;;;;5061746;28;20288;-81
2021/07/08 04:03:15;;;;;;;1.10;1.10;;;20.70;99.90;;;;;;5056525;28;20246;-81
2021/07/08 04:05:44;;;;;;;1.17;1.08;;;20.70;99.90;;;;;;5039797;28;20702;-80
2021/07/08 04:08:11;;;;;;;1.80;1.10;;;20.70;99.90;;;;;;5056285;28;20807;-80
2021/07/08 04:10:40;;;;;;;3.92;1.20;;;20.60;99.90;;;;;;5042934;28;20219;-81
2021/07/08 04:13:11;;;;;;;1.30;1.20;;;20.60;99.90;;;;;;5046448;28;20237;-81
2021/07/08 04:15:40;;;;;;;2.17;1.20;;;20.70;99.90;;;;;;5047195;28;20766;-81
2021/07/08 04:18:08;;;;;;;1.52;1.15;;;20.80;99.90;;;;;;5034247;28;20243;-80
2021/07/08 04:20:35;;;;;;;1.23;1.10;;;21.00;99.90;;;;;;5025820;28;20223;-81
2021/07/08 04:23:03;;;;;;;1.67;1.08;;;21.00;99.90;;;;;;5045065;28;20218;-80
2021/07/08 04:25:31;;;;;;;1.30;1.20;;;21.10;99.90;;;;;;5028199;28;20227;-80
2021/07/08 04:27:58;;;;;;;1.42;1.20;;;21.10;99.90;;;;;;5041965;28;20227;-80
2021/07/08 04:30:26;;;;;;;1.10;1.10;;;21.10;99.90;;;;;;5043634;28;20573;-80
2021/07/08 04:32:56;;;;;;;1.00;1.00;;;21.10;99.90;;;;;;5042272;28;20276;-80
2021/07/08 04:35:30;;;;;;;3.28;1.02;;;21.20;99.90;;;;;;5044715;28;20250;-81
2021/07/08 04:38:08;;;;;;;1.25;1.05;;;21.20;99.90;;;;;;5075112;28;20232;-82
2021/07/08 04:40:36;;;;;;;2.35;1.40;;;21.20;99.90;;;;;;5027490;28;20223;-83
2021/07/08 04:43:03;;;;;;;2.22;1.25;;;21.10;99.90;;;;;;5077119;28;20241;-81
2021/07/08 04:45:30;;;;;;;1.20;1.10;;;21.10;99.90;;;;;;5064054;28;20487;-82
2021/07/08 04:47:58;;;;;;;1.30;1.20;;;21.20;99.90;;;;;;5070804;28;20223;-82
2021/07/08 04:50:26;;;;;;;1.40;1.30;;;21.20;99.90;;;;;;5066217;28;20218;-82
2021/07/08 04:52:55;;;;;;;2.05;1.20;;;21.10;99.90;;;;;;5072502;28;20218;-82
2021/07/08 04:55:26;;;;;;;1.80;1.30;;;21.00;99.90;;;;;;5057597;28;20226;-82
2021/07/08 04:57:54;;;;;;;1.75;1.20;;;21.00;99.90;;;;;;5069862;28;20202;-81
2021/07/08 05:00:23;;;;;;;1.67;1.58;;;20.80;99.90;;;;;;5074802;28;20223;-83
2021/07/08 05:02:51;;;;;;;2.40;1.23;;;20.70;99.90;;;;;;5074548;28;20229;-82
2021/07/08 05:05:20;;;;;;;1.25;1.17;;;20.70;99.90;;;;;;5075663;28;20233;-81
2021/07/08 05:07:48;;;;;;;1.58;1.20;;;20.70;99.90;;;;;;5075320;28;20214;-81
2021/07/08 05:10:16;;;;;;;1.52;1.42;;;20.70;99.90;;;;;;5067495;28;20233;-81
2021/07/08 05:12:44;;;;;;;1.48;1.38;;;20.70;99.90;;;;;;5074286;28;20211;-82
2021/07/08 05:15:14;;;;;;;1.23;1.13;;;20.60;99.90;;;;;;5067955;28;20211;-81
2021/07/08 05:17:41;;;;;;;1.70;1.40;;;20.60;99.90;;;;;;5048449;28;20225;-81
2021/07/08 05:20:10;;;;;;;2.65;1.40;;;20.60;99.90;;;;;;5051063;28;20226;-80
2021/07/08 05:22:39;;;;;;;1.20;1.20;;;20.60;99.90;;;;;;5056823;28;20231;-81
2021/07/08 05:25:08;;;;;;;1.40;1.30;;;20.60;99.90;;;;;;5073832;28;20210;-82
2021/07/08 05:27:36;;;;;;;1.60;1.50;;;20.60;99.90;;;;;;5067054;28;20272;-81
2021/07/08 05:30:04;;;;;;;1.83;1.48;;;20.70;99.90;;;;;;5060993;28;20281;-82
2021/07/08 05:32:31;;;;;;;2.03;1.73;;;20.80;99.90;;;;;;5046451;28;20341;-82
2021/07/08 05:34:58;;;;;;;1.92;1.67;;;20.90;99.90;;;;;;5055215;28;20234;-82
2021/07/08 05:37:25;;;;;;;2.50;1.50;;;21.00;99.90;;;;;;5058756;28;20241;-82
2021/07/08 05:39:53;;;;;;;1.63;1.52;;;20.90;99.90;;;;;;5068584;28;20235;-82
2021/07/08 05:42:20;;;;;;;1.60;1.50;;;20.70;99.90;;;;;;5050226;28;20232;-81
2021/07/08 05:44:47;;;;;;;2.38;1.80;;;20.70;99.90;;;;;;5068121;28;20245;-80
2021/07/08 05:47:15;;;;;;;2.95;1.70;;;20.70;99.90;;;;;;5065347;28;20244;-81
2021/07/08 05:49:42;;;;;;;1.27;1.25;;;20.80;99.90;;;;;;5067857;28;20507;-80
2021/07/08 05:52:09;;;;;;;2.63;1.92;;;20.80;99.90;;;;;;5049855;28;20277;-82
2021/07/08 05:54:36;;;;;;;2.83;1.88;;;20.80;99.90;;;;;;5064438;28;20227;-80
2021/07/08 05:57:06;;;;;;;1.95;1.60;;;20.90;99.90;;;;;;5057588;28;20219;-81
2021/07/08 05:59:33;;;;;;;2.28;1.70;;;21.10;99.90;;;;;;5055661;28;20237;-80
2021/07/08 06:02:00;;;;;;;2.35;1.65;;;21.20;99.90;;;;;;5056456;28;20231;-81
2021/07/08 06:04:27;;;;;;;2.55;1.73;;;21.20;99.90;;;;;;5068375;28;20219;-82
2021/07/08 06:06:54;;;;;;;2.17;1.98;;;21.30;99.90;;;;;;5049961;28;20223;-81
2021/07/08 06:09:21;;;;;;;3.60;1.88;;;21.30;99.90;;;;;;5048741;28;20211;-81
2021/07/08 06:11:48;;;;;;;3.28;1.95;;;21.30;99.90;;;;;;5057461;28;20223;-81
2021/07/08 06:14:16;;;;;;;1.95;1.63;;;21.30;99.90;;;;;;5060983;28;20257;-81
2021/07/08 06:16:43;;;;;;;1.80;1.50;;;21.40;99.90;;;;;;5066915;28;20223;-81
2021/07/08 06:19:10;;;;;;;2.28;1.73;;;21.50;99.90;;;;;;5051128;28;20223;-81
2021/07/08 06:21:37;;;;;;;2.40;1.70;;;21.60;99.90;;;;;;5055358;28;20572;-81
2021/07/08 06:24:07;;;;;;;1.98;1.80;;;21.60;99.90;;;;;;5044898;28;20242;-82
2021/07/08 06:26:34;;;;;;;3.85;1.70;;;21.70;99.90;;;;;;5065668;28;20229;-81
2021/07/08 06:29:01;;;;;;;3.03;1.80;;;21.80;99.90;;;;;;5057702;28;20227;-82
2021/07/08 06:31:30;;;;;;;2.33;1.70;;;21.90;99.90;;;;;;5041440;28;20249;-81
2021/07/08 06:33:57;;;;;;;1.80;1.70;;;22.00;99.90;;;;;;5058500;28;20285;-81
2021/07/08 06:36:25;;;;;;;2.03;1.83;;;22.10;99.90;;;;;;5050440;28;20831;-81
2021/07/08 06:38:52;;;;;;;1.77;1.55;;;22.10;99.90;;;;;;5051633;28;20235;-81
2021/07/08 06:41:19;;;;;;;1.85;1.50;;;22.20;99.90;;;;;;5067054;28;20227;-83
2021/07/08 06:43:46;;;;;;;1.95;1.75;;;22.30;99.90;;;;;;5064221;28;20218;-84
2021/07/08 06:46:17;;;;;;;2.13;1.95;;;22.40;99.90;;;;;;5061319;28;20270;-83
2021/07/08 06:48:46;;;;;;;1.70;1.60;;;22.50;99.90;;;;;;5073993;28;20218;-84
2021/07/08 06:51:13;;;;;;;1.88;1.75;;;22.60;99.90;;;;;;5073746;28;20221;-83
2021/07/08 06:53:41;;;;;;;2.13;1.80;;;22.30;99.90;;;;;;5081537;28;20209;-82
2021/07/08 06:56:08;;;;;;;2.38;1.63;;;22.00;99.90;;;;;;5079685;22;20208;-76
2021/07/08 07:01:03;;;;;;;3.20;1.80;;;21.80;99.90;;;;;;4995366;28;20869;-73
2021/07/08 07:03:34;;;;;;;1.77;1.67;;;21.70;99.90;;;;;;5033181;28;20228;-71
2021/07/08 07:06:03;;;;;;;4.20;1.65;;;21.60;99.90;;;;;;5046564;28;20222;-72
2021/07/08 07:08:30;;;;;;;1.60;1.50;;;21.50;99.90;;;;;;5048557;28;20222;-73
2021/07/08 07:10:58;;;;;;;2.22;1.80;;;21.50;99.90;;;;;;5049678;28;20233;-72
2021/07/08 07:13:25;;;;;;;1.75;1.63;;;21.40;99.90;;;;;;5045279;28;20693;-69
2021/07/08 07:15:52;;;;;;;2.28;1.65;;;21.40;99.90;;;;;;5042003;28;20222;-70
2021/07/08 07:18:19;;;;;;;2.40;1.60;;;21.40;99.90;;;;;;5042604;28;20230;-71
2021/07/08 07:20:46;;;;;;;2.67;1.70;;;21.60;99.90;;;;;;5040583;28;20570;-70
2021/07/08 07:23:15;;;;;;;1.92;1.60;;;21.70;99.90;;;;;;5043751;28;20215;-71
2021/07/08 07:25:42;;;;;;;2.95;1.90;;;21.90;99.90;;;;;;5042045;28;20515;-71
2021/07/08 07:28:10;;;;;;;1.90;1.80;;;22.00;99.90;;;;;;5045170;28;20218;-71
2021/07/08 07:30:38;;;;;;;2.72;1.83;;;21.90;99.90;;;;;;5041168;28;20237;-70
2021/07/08 07:33:06;;;;;;;3.60;1.60;;;21.80;99.90;;;;;;5035985;28;20219;-72
2021/07/08 07:35:33;;;;;;;2.53;2.05;;;21.80;99.90;;;;;;5036887;28;20218;-71
2021/07/08 07:38:00;;;;;;;2.17;1.80;;;22.00;99.90;;;;;;5037797;28;20239;-71
2021/07/08 07:40:29;;;;;;;2.53;1.40;;;22.10;99.90;;;;;;5036262;28;20242;-71
2021/07/08 07:42:56;;;;;;;3.25;1.60;;;21.90;99.90;;;;;;5033639;28;20230;-71
2021/07/08 07:45:24;;;;;;;5.10;1.70;;;21.70;99.90;;;;;;5039947;28;20227;-70
2021/07/08 07:47:53;;;;;;;2.45;1.77;;;21.60;99.90;;;;;;5034921;28;20239;-70
2021/07/08 07:50:22;;;;;;;1.90;1.63;;;21.50;99.90;;;;;;5036055;28;20276;-71
2021/07/08 07:52:51;;;;;;;1.63;1.50;;;21.50;99.90;;;;;;5032485;28;20696;-71
2021/07/08 07:55:18;;;;;;;3.25;2.00;;;21.60;99.90;;;;;;5036058;28;20292;-71
2021/07/08 07:57:47;;;;;;;1.75;1.50;;;22.00;99.90;;;;;;5036884;28;20222;-71
2021/07/08 08:00:15;;;;;;;1.60;1.50;;;22.20;99.90;;;;;;5035502;28;20258;-70
2021/07/08 08:02:42;;;;;;;1.98;1.70;;;22.30;99.90;;;;;;5033128;28;20238;-71
2021/07/08 08:05:33;;;;;;;2.15;1.95;;;22.60;99.90;;;;;;5033557;28;20230;-70
2021/07/08 08:10:45;;;;;;;1.73;1.63;;;22.50;99.90;;;;;;5032721;28;20234;-71
2021/07/08 08:13:15;;;;;;;1.70;1.60;;;22.20;99.90;;;;;;5037367;28;20222;-71
2021/07/08 08:15:43;;;;;;;2.05;1.40;;;21.90;99.90;;;;;;5033896;28;20272;-71
2021/07/08 08:18:11;;;;;;;1.40;1.30;;;21.90;99.90;;;;;;5034316;28;20284;-71
2021/07/08 08:20:38;;;;;;;1.70;1.60;;;22.00;99.90;;;;;;5033172;28;20782;-70
2021/07/08 08:23:05;;;;;;;3.80;1.60;;;22.10;99.90;;;;;;5033746;28;20292;-70
2021/07/08 08:25:33;;;;;;;2.65;2.08;;;22.10;99.90;;;;;;5032453;28;20280;-70
2021/07/08 08:28:00;;;;;;;3.40;1.85;;;21.80;99.90;;;;;;5035750;28;20719;-70
2021/07/08 08:30:29;;;;;;;2.30;2.10;;;21.60;99.90;;;;;;5032091;28;20324;-69
2021/07/08 08:32:57;;;;;;;2.10;1.65;;;21.50;99.90;;;;;;5030944;28;20716;-69
2021/07/08 08:35:24;;;;;;;1.80;1.70;;;21.40;99.90;;;;;;5036298;28;20218;-70
2021/07/08 08:37:51;;;;;;;3.90;1.70;;;21.50;99.90;;;;;;5031373;28;20222;-69
2021/07/08 08:40:21;;;;;;;2.45;2.25;;;21.60;99.90;;;;;;5035278;28;20218;-70
2021/07/08 08:42:48;;;;;;;1.50;1.40;;;21.70;99.90;;;;;;5032389;28;20234;-70
2021/07/08 08:45:18;;;;;;;2.20;1.75;;;22.20;99.90;;;;;;5034506;28;20251;-70
2021/07/08 08:48:12;;;;;;;1.63;1.52;;;22.50;99.90;;;;;;5038393;28;20232;-70
2021/07/08 08:50:41;;;;;;;1.73;1.63;;;22.90;99.90;;;;;;5016779;28;20230;-72
2021/07/08 08:53:09;;;;;;;4.20;1.98;;;23.20;99.90;;;;;;5032270;28;20223;-71
2021/07/08 08:55:37;;;;;;;1.98;1.60;;;23.40;99.90;;;;;;5034527;28;20321;-71
2021/07/08 08:58:04;;;;;;;1.40;1.30;;;23.50;99.90;;;;;;5033696;28;20662;-72
2021/07/08 09:00:41;;;;;;;1.77;1.67;;;23.90;99.90;;;;;;5035429;28;20416;-70
2021/07/08 09:03:10;;;;;;;2.13;1.60;;;24.10;99.90;;;;;;5033095;28;20458;-70
2021/07/08 09:05:39;;;;;;;1.55;1.45;;;24.20;99.90;;;;;;5033448;28;20341;-73
2021/07/08 09:08:15;;;;;;;3.50;2.08;;;24.30;99.90;;;;;;5032263;28;20226;-71
2021/07/08 09:10:43;;;;;;;2.42;2.10;;;24.40;99.90;;;;;;5031090;28;20222;-71
2021/07/08 09:13:10;;;;;;;3.03;2.03;;;24.20;99.90;;;;;;5030031;28;20234;-71
2021/07/08 09:15:38;;;;;;;3.38;2.20;;;24.00;99.90;;;;;;5031286;28;20697;-71
2021/07/08 09:18:05;;;;;;;3.65;1.67;;;23.90;99.90;;;;;;5037277;28;20226;-71
2021/07/08 09:20:33;;;;;;;1.95;1.50;;;24.10;99.90;;;;;;5028267;28;20226;-72
2021/07/08 09:23:16;;;;;;;2.55;1.92;;;24.40;99.90;;;;;;5035703;28;20242;-71
2021/07/08 09:25:44;;;;;;;1.60;1.50;;;24.80;99.90;;;;;;5030790;28;20218;-74
2021/07/08 09:28:14;;;;;;;1.63;1.52;;;25.20;99.90;;;;;;5036829;28;22123;-71
2021/07/08 09:30:42;;;;;;;2.72;1.80;;;25.50;99.90;;;;;;5035407;28;20288;-71
2021/07/08 09:33:29;;;;;;;2.30;1.77;;;25.80;99.90;;;;;;5032595;28;20223;-71
2021/07/08 09:36:14;;;;;;;2.05;1.85;;;25.80;99.90;;;;;;5032363;28;20306;-71
2021/07/08 09:38:44;;;;;;;1.83;1.50;;;25.60;99.90;;;;;;5035009;28;20241;-70
2021/07/08 09:41:16;;;;;;;1.60;1.50;;;25.40;99.90;;;;;;5031045;28;20292;-70
2021/07/08 09:43:44;;;;;;;2.25;1.50;;;25.10;99.90;;;;;;5029545;28;20986;-70
2021/07/08 09:46:13;;;;;;;1.75;1.65;;;24.80;99.90;;;;;;5031931;28;20227;-69
2021/07/08 09:48:41;;;;;;;1.80;1.55;;;24.80;99.90;;;;;;5036432;28;20219;-69
2021/07/08 09:51:27;;;;;;;2.33;1.30;;;25.20;99.90;;;;;;5033969;28;20298;-71
2021/07/08 09:54:04;;;;;;;2.15;1.75;;;25.30;99.90;;;;;;5034586;28;20228;-71
2021/07/08 09:56:49;;;;;;;1.70;1.50;;;25.30;99.90;;;;;;5031749;28;20211;-70
2021/07/08 09:59:20;;;;;;;1.60;1.50;;;25.60;99.90;;;;;;5030617;28;20233;-69
2021/07/08 10:01:55;;;;;;;2.22;1.60;;;25.80;99.90;;;;;;5033149;28;20230;-69
2021/07/08 10:04:22;;;;;;;1.23;1.20;;;26.00;99.90;;;;;;5032650;28;20623;-70
2021/07/08 10:06:49;;;;;;;2.33;1.40;;;26.40;99.90;;;;;;5040220;28;20248;-70
2021/07/08 10:09:19;;;;;;;1.52;1.42;;;26.60;99.90;;;;;;5032651;28;20300;-71
2021/07/08 10:11:49;;;;;;;1.83;1.63;;;26.80;99.90;;;;;;5035557;28;20218;-72
2021/07/08 10:14:17;;;;;;;1.38;1.23;;;26.90;99.90;;;;;;5036181;28;20227;-72
2021/07/08 10:16:49;;;;;;;1.60;1.50;;;27.00;99.90;;;;;;5037485;28;20979;-72
2021/07/08 10:19:19;;;;;;;2.17;1.27;;;26.90;99.90;;;;;;5036403;28;20234;-71
2021/07/08 10:21:47;;;;;;;2.67;1.42;;;27.00;99.90;;;;;;5038440;28;20319;-73
2021/07/08 10:24:17;;;;;;;2.13;1.30;;;27.10;99.90;;;;;;5036046;28;20280;-72
2021/07/08 10:26:44;;;;;;;2.85;1.70;;;27.30;99.90;;;;;;5036440;28;20227;-72
2021/07/08 10:29:12;;;;;;;1.92;1.63;;;27.70;99.90;;;;;;5038998;28;20223;-71
2021/07/08 10:31:41;;;;;;;2.75;2.50;;;27.80;99.90;;;;;;5038695;28;20227;-72
2021/07/08 10:34:15;;;;;;;4.65;2.80;;;27.60;99.90;;;;;;5039046;28;20246;-72
2021/07/08 10:36:44;;;;;;;6.43;3.38;;;27.30;99.90;;;;;;5036480;28;20211;-72
2021/07/08 10:39:15;;;;;;;18.08;6.82;;;27.00;99.90;;;;;;5038595;28;20277;-72
2021/07/08 10:41:56;;;;;;;7.50;3.38;;;26.90;99.90;;;;;;5032891;28;20714;-71
2021/07/08 10:44:50;;;;;;;7.10;3.22;;;27.00;99.90;;;;;;5038388;28;20233;-72
2021/07/08 10:47:35;;;;;;;2.90;2.17;;;26.90;99.90;;;;;;5031081;28;20218;-71
2021/07/08 10:50:06;;;;;;;3.42;2.30;;;27.00;99.90;;;;;;5033411;28;20215;-70
2021/07/08 10:52:44;;;;;;;3.00;2.10;;;27.30;99.90;;;;;;5038791;28;20219;-71
2021/07/08 10:55:13;;;;;;;2.97;1.90;;;27.60;99.90;;;;;;5037995;28;20268;-72
2021/07/08 10:57:41;;;;;;;2.88;1.83;;;27.50;99.90;;;;;;5031156;28;20281;-71
2021/07/08 11:00:11;;;;;;;1.50;1.40;;;27.50;99.90;;;;;;5038015;28;20239;-72
2021/07/08 11:02:49;;;;;;;1.95;1.55;;;27.70;99.90;;;;;;5031547;28;20226;-72
2021/07/08 11:05:53;;;;;;;1.92;1.58;;;27.60;99.90;;;;;;5036747;28;20226;-71
2021/07/08 11:08:59;;;;;;;2.90;1.30;;;27.80;99.90;;;;;;5030854;28;20429;-71
2021/07/08 11:11:59;;;;;;;1.60;1.48;;;27.70;99.90;;;;;;5028671;28;20708;-72
2021/07/08 11:14:30;;;;;;;1.85;1.55;;;27.70;99.90;;;;;;5033371;28;20640;-72
2021/07/08 11:17:00;;;;;;;1.50;1.38;;;27.50;99.90;;;;;;5034590;28;20234;-72
2021/07/08 11:19:35;;;;;;;2.17;1.60;;;27.70;99.90;;;;;;5035000;28;20230;-73
2021/07/08 11:22:04;;;;;;;2.70;1.60;;;27.80;99.90;;;;;;5036062;28;20301;-73
2021/07/08 11:24:42;;;;;;;1.83;1.65;;;28.00;99.90;;;;;;5037652;28;20219;-75
2021/07/08 11:27:11;;;;;;;1.60;1.50;;;28.00;99.90;;;;;;5037202;28;20221;-73
2021/07/08 11:29:41;;;;;;;1.70;1.55;;;28.10;99.90;;;;;;5034159;28;20396;-73
2021/07/08 11:32:25;;;;;;;1.83;1.63;;;27.90;99.90;;;;;;5036235;28;20222;-73
2021/07/08 11:34:56;;;;;;;1.42;1.33;;;27.30;99.90;;;;;;5033630;28;22535;-73
2021/07/08 11:37:25;;;;;;;3.50;1.38;;;27.10;99.90;;;;;;5037486;28;20846;-74
2021/07/08 11:39:57;;;;;;;1.50;1.40;;;27.10;99.90;;;;;;5034281;28;20222;-73
2021/07/08 11:42:26;;;;;;;1.35;1.25;;;27.00;99.90;;;;;;5037142;28;20306;-73
2021/07/08 11:44:55;;;;;;;1.23;1.13;;;26.90;99.90;;;;;;5032917;28;20223;-73
2021/07/08 11:47:22;;;;;;;1.73;1.60;;;27.00;99.90;;;;;;5033294;28;20222;-73
2021/07/08 11:49:50;;;;;;;1.50;1.40;;;27.40;99.90;;;;;;5036993;28;20234;-74
2021/07/08 11:52:22;;;;;;;1.80;1.55;;;27.80;99.90;;;;;;5034068;28;20643;-74
2021/07/08 11:55:00;;;;;;;2.35;1.83;;;27.80;99.90;;;;;;5036028;28;20246;-74
2021/07/08 11:57:28;;;;;;;1.60;1.50;;;27.30;99.90;;;;;;5033570;28;20311;-75
2021/07/08 11:59:56;;;;;;;2.13;1.50;;;27.00;99.90;;;;;;5033557;28;20235;-73
2021/07/08 12:02:37;;;;;;;1.33;1.20;;;26.80;99.90;;;;;;5034553;28;20231;-73
2021/07/08 12:05:15;;;;;;;1.40;1.30;;;26.50;99.90;;;;;;5038776;28;20218;-76
2021/07/08 12:07:43;;;;;;;1.00;1.00;;;26.40;99.90;;;;;;5032413;28;20297;-74
2021/07/08 12:10:11;;;;;;;1.30;1.20;;;26.50;99.90;;;;;;5036561;28;20355;-74
2021/07/08 12:12:40;;;;;;;1.63;1.15;;;26.70;99.90;;;;;;5033740;28;20210;-72
2021/07/08 12:15:10;;;;;;;1.45;1.08;;;27.10;99.90;;;;;;5036331;28;20708;-73
2021/07/08 12:17:37;;;;;;;1.25;1.15;;;27.20;99.90;;;;;;5031944;28;20803;-73
2021/07/08 12:20:09;;;;;;;1.55;1.20;;;27.10;99.90;;;;;;5034853;28;20218;-73
2021/07/08 12:22:51;;;;;;;2.22;1.48;;;27.20;99.90;;;;;;5033064;28;20308;-74
2021/07/08 12:25:20;;;;;;;1.13;1.10;;;27.60;99.90;;;;;;5034637;28;20219;-77
2021/07/08 12:27:47;;;;;;;1.55;1.45;;;27.60;99.90;;;;;;5030885;28;20231;-73
2021/07/08 12:30:20;;;;;;;1.50;1.30;;;27.40;99.90;;;;;;5031087;28;20237;-75
2021/07/08 12:32:47;;;;;;;3.70;1.92;;;27.30;99.90;;;;;;5034185;28;20284;-73
2021/07/08 12:35:14;;;;;;;3.25;1.90;;;27.30;99.90;;;;;;5035423;28;20218;-73
2021/07/08 12:37:41;;;;;;;1.65;1.55;;;27.50;99.90;;;;;;5035308;28;20519;-74
2021/07/08 12:40:11;;;;;;;1.60;1.50;;;27.30;99.90;;;;;;5032784;28;20227;-73
2021/07/08 12:42:41;;;;;;;2.65;1.65;;;27.10;99.90;;;;;;5031763;28;20241;-74
2021/07/08 12:45:11;;;;;;;2.05;1.40;;;27.30;99.90;;;;;;5034401;28;20641;-72
2021/07/08 12:47:43;;;;;;;2.63;1.60;;;27.50;99.90;;;;;;5032540;28;20227;-73
2021/07/08 12:50:14;;;;;;;2.58;1.63;;;27.40;99.90;;;;;;5031408;28;20506;-74
2021/07/08 12:52:43;;;;;;;2.15;1.55;;;27.30;99.90;;;;;;5033366;28;20242;-74
2021/07/08 12:55:35;;;;;;;1.50;1.40;;;27.20;99.90;;;;;;5031203;28;20235;-73
2021/07/08 12:58:02;;;;;;;2.28;1.70;;;26.90;99.90;;;;;;5034039;28;20227;-73
2021/07/08 13:00:31;;;;;;;1.40;1.30;;;26.80;99.90;;;;;;5031946;28;21795;-75
2021/07/08 13:02:59;;;;;;;1.98;1.48;;;26.70;99.90;;;;;;5036839;28;20238;-75
2021/07/08 13:05:35;;;;;;;2.05;1.35;;;26.60;99.90;;;;;;5033640;28;20234;-76